Time;durP1;ratioP1;P1;durP2;ratioP2;P2;SDS_P1;SDS_P2;PMS_P1;PMS_P2;Temp;Humidity;BMP_temperature;BMP_pressure;BME280_temperature;BME280_humidity;BME280_pressure;Samples;Min_cycle;Max_cycle;Signal;HPM_P1;HPM_P2
2023/08/07 00:00:41;;;;;;;;;;;15.60;98.70;;;;;;5088361;28;19916;-68
2023/08/07 00:03:06;;;;;;;;;;;15.60;98.80;;;;;;5088626;28;19920;-68
2023/08/07 00:05:32;;;;;;;;;;;15.50;98.70;;;;;;5088167;28;20022;-68
2023/08/07 00:07:57;;;;;;;;;;;15.50;98.80;;;;;;5088452;28;20317;-68
2023/08/07 00:10:24;;;;;;;;;;;15.50;98.80;;;;;;5074598;28;19911;-68
2023/08/07 00:12:49;;;;;;;;;;;15.60;98.80;;;;;;5088294;28;19920;-68
2023/08/07 00:15:15;;;;;;;;;;;15.50;98.90;;;;;;5088070;28;19912;-68
2023/08/07 00:17:41;;;;;;;;;;;15.50;99.00;;;;;;5088252;28;19912;-68
2023/08/07 00:20:07;;;;;;;;;;;15.50;99.00;;;;;;5088190;28;20029;-68
2023/08/07 00:22:32;;;;;;;;;;;15.50;99.00;;;;;;5089455;28;20690;-68
2023/08/07 00:24:58;;;;;;;;;;;15.50;99.00;;;;;;5095864;28;19920;-68
2023/08/07 00:27:23;;;;;;;;;;;15.40;99.10;;;;;;5099390;28;19951;-67
2023/08/07 00:29:49;;;;;;;;;;;15.40;99.00;;;;;;5108426;28;20002;-67
2023/08/07 00:32:14;;;;;;;;;;;15.50;99.00;;;;;;5089885;28;19911;-67
2023/08/07 00:34:40;;;;;;;;;;;15.50;99.10;;;;;;5070263;28;19923;-68
2023/08/07 00:37:05;;;;;;;;;;;15.40;99.00;;;;;;5069857;28;19912;-68
2023/08/07 00:39:31;;;;;;;;;;;15.40;99.00;;;;;;5087960;28;19973;-68
2023/08/07 00:41:56;;;;;;;;;;;15.40;99.00;;;;;;5087810;28;19921;-67
2023/08/07 00:44:23;;;;;;;;;;;15.40;99.20;;;;;;5088907;28;19927;-68
2023/08/07 00:46:49;;;;;;;;;;;15.40;99.20;;;;;;5087363;28;20024;-68
2023/08/07 00:49:14;;;;;;;;;;;15.40;99.10;;;;;;5087691;28;20023;-68
2023/08/07 00:51:40;;;;;;;;;;;15.40;99.10;;;;;;5087798;28;20299;-68
2023/08/07 00:54:07;;;;;;;;;;;15.40;99.20;;;;;;5095451;28;19913;-67
2023/08/07 00:56:33;;;;;;;;;;;15.30;99.30;;;;;;5086865;28;19912;-68
2023/08/07 00:58:59;;;;;;;;;;;15.40;99.10;;;;;;5087584;28;19912;-68
2023/08/07 01:01:25;;;;;;;;;;;15.30;99.20;;;;;;5088653;28;19916;-68
2023/08/07 01:03:50;;;;;;;;;;;15.30;99.30;;;;;;5087542;28;19981;-68
2023/08/07 01:06:16;;;;;;;;;;;15.40;99.10;;;;;;5090816;28;20262;-68
2023/08/07 01:08:41;;;;;;;;;;;15.40;99.20;;;;;;5092042;28;19908;-68
2023/08/07 01:11:07;;;;;;;;;;;15.30;99.20;;;;;;5073603;28;19947;-68
2023/08/07 01:13:36;;;;;;;;;;;15.40;99.10;;;;;;5091713;28;19919;-68
2023/08/07 01:16:07;;;;;;;;;;;15.40;99.00;;;;;;5092751;28;19915;-68
2023/08/07 01:18:34;;;;;;;;;;;15.40;99.20;;;;;;5111854;28;19916;-68
2023/08/07 01:20:59;;;;;;;;;;;15.30;99.20;;;;;;5093433;28;20002;-68
2023/08/07 01:23:25;;;;;;;;;;;15.30;99.30;;;;;;5111858;28;20112;-68
2023/08/07 01:25:51;;;;;;;;;;;15.30;99.20;;;;;;5091129;28;19920;-68
2023/08/07 01:28:19;;;;;;;;;;;15.30;99.20;;;;;;5092555;28;19912;-68
2023/08/07 01:30:48;;;;;;;;;;;15.30;99.20;;;;;;5091309;28;20022;-68
2023/08/07 01:33:19;;;;;;;;;;;15.30;99.20;;;;;;5089680;28;20346;-68
2023/08/07 01:35:47;;;;;;;;;;;15.30;99.20;;;;;;5070765;28;20618;-68
2023/08/07 01:38:13;;;;;;;;;;;15.20;99.40;;;;;;5071323;28;20292;-68
2023/08/07 01:40:39;;;;;;;;;;;15.20;99.40;;;;;;5075804;28;19919;-68
2023/08/07 01:43:05;;;;;;;;;;;15.30;99.40;;;;;;5091357;28;19915;-68
2023/08/07 01:45:30;;;;;;;;;;;15.20;99.50;;;;;;5072675;28;19912;-68
2023/08/07 01:47:56;;;;;;;;;;;15.20;99.30;;;;;;5090877;28;19954;-68
2023/08/07 01:50:22;;;;;;;;;;;15.30;99.40;;;;;;5090021;28;20424;-68
2023/08/07 01:52:48;;;;;;;;;;;15.30;99.20;;;;;;5094896;28;19912;-68
2023/08/07 01:55:14;;;;;;;;;;;15.30;99.30;;;;;;5095357;28;19919;-68
2023/08/07 01:57:39;;;;;;;;;;;15.30;99.50;;;;;;5091909;28;20590;-68
2023/08/07 02:00:05;;;;;;;;;;;15.30;99.40;;;;;;5090892;28;19912;-68
2023/08/07 02:02:31;;;;;;;;;;;15.20;99.30;;;;;;5107998;28;19919;-68
2023/08/07 02:04:56;;;;;;;;;;;15.30;99.30;;;;;;5097413;28;19912;-68
2023/08/07 02:07:21;;;;;;;;;;;15.20;99.20;;;;;;5090547;28;19968;-68
2023/08/07 02:09:47;;;;;;;;;;;15.20;99.30;;;;;;5091251;28;20385;-68
2023/08/07 02:12:12;;;;;;;;;;;15.20;99.30;;;;;;5090602;28;19919;-68
2023/08/07 02:14:38;;;;;;;;;;;15.20;99.50;;;;;;5092185;28;20873;-68
2023/08/07 02:17:04;;;;;;;;;;;15.10;99.50;;;;;;5109188;28;19912;-68
2023/08/07 02:19:30;;;;;;;;;;;15.20;99.40;;;;;;5110909;28;19911;-68
2023/08/07 02:21:55;;;;;;;;;;;15.20;99.50;;;;;;5110859;28;19912;-68
2023/08/07 02:24:21;;;;;;;;;;;15.20;99.40;;;;;;5103463;28;19923;-68
2023/08/07 02:26:47;;;;;;;;;;;15.20;99.40;;;;;;5089992;28;19956;-68
2023/08/07 02:29:12;;;;;;;;;;;15.20;99.50;;;;;;5090605;28;19912;-68
2023/08/07 02:31:38;;;;;;;;;;;15.10;99.50;;;;;;5096375;28;19912;-68
2023/08/07 02:34:03;;;;;;;;;;;15.20;99.50;;;;;;5094866;28;19915;-68
2023/08/07 02:36:29;;;;;;;;;;;15.20;99.50;;;;;;5110057;28;19920;-68
2023/08/07 02:38:54;;;;;;;;;;;15.10;99.70;;;;;;5110547;28;19920;-68
2023/08/07 02:41:20;;;;;;;;;;;15.10;99.70;;;;;;5099726;28;19923;-68
2023/08/07 02:43:45;;;;;;;;;;;15.10;99.50;;;;;;5090243;28;19931;-68
2023/08/07 02:46:11;;;;;;;;;;;15.10;99.70;;;;;;5089854;28;19912;-68
2023/08/07 02:48:36;;;;;;;;;;;15.20;99.50;;;;;;5103008;28;19911;-68
2023/08/07 02:51:02;;;;;;;;;;;15.10;99.60;;;;;;5110186;28;19973;-68
2023/08/07 02:53:27;;;;;;;;;;;15.10;99.50;;;;;;5110229;28;19937;-68
2023/08/07 02:55:53;;;;;;;;;;;15.10;99.50;;;;;;5088922;28;19908;-68
2023/08/07 02:58:18;;;;;;;;;;;15.10;99.60;;;;;;5071516;28;19916;-68
2023/08/07 03:00:44;;;;;;;;;;;15.10;99.60;;;;;;5089438;28;19946;-68
2023/08/07 03:03:09;;;;;;;;;;;15.10;99.50;;;;;;5089820;28;20504;-68
2023/08/07 03:05:35;;;;;;;;;;;15.10;99.50;;;;;;5105632;28;19920;-68
2023/08/07 03:08:00;;;;;;;;;;;15.10;99.50;;;;;;5089591;28;19922;-68
2023/08/07 03:10:26;;;;;;;;;;;15.10;99.60;;;;;;5071298;28;19912;-68
2023/08/07 03:12:51;;;;;;;;;;;15.10;99.60;;;;;;5089635;28;20277;-68
2023/08/07 03:15:17;;;;;;;;;;;15.10;99.50;;;;;;5089463;28;19912;-68
2023/08/07 03:17:42;;;;;;;;;;;15.10;99.50;;;;;;5089202;28;19912;-68
2023/08/07 03:20:09;;;;;;;;;;;15.10;99.50;;;;;;5089619;28;19912;-68
2023/08/07 03:22:34;;;;;;;;;;;15.10;99.40;;;;;;5091136;28;19912;-68
2023/08/07 03:25:00;;;;;;;;;;;15.10;99.80;;;;;;5078264;28;19927;-68
2023/08/07 03:27:25;;;;;;;;;;;15.10;99.50;;;;;;5088446;28;19912;-68
2023/08/07 03:29:51;;;;;;;;;;;15.10;99.40;;;;;;5070491;28;19912;-68
2023/08/07 03:32:17;;;;;;;;;;;15.10;99.50;;;;;;5089035;28;19912;-68
2023/08/07 03:34:42;;;;;;;;;;;15.00;99.60;;;;;;5070905;28;20021;-68
2023/08/07 03:37:08;;;;;;;;;;;15.00;99.50;;;;;;5070536;28;19916;-68
2023/08/07 03:39:33;;;;;;;;;;;15.10;99.50;;;;;;5088784;28;19943;-68
2023/08/07 03:41:59;;;;;;;;;;;15.00;99.60;;;;;;5088132;28;20683;-68
2023/08/07 03:44:24;;;;;;;;;;;15.10;99.50;;;;;;5070942;28;19916;-68
2023/08/07 03:46:51;;;;;;;;;;;15.10;99.50;;;;;;5088498;28;19970;-68
2023/08/07 03:49:16;;;;;;;;;;;15.10;99.60;;;;;;5070238;28;19919;-68
2023/08/07 03:51:42;;;;;;;;;;;15.00;99.60;;;;;;5088882;28;20355;-68
2023/08/07 03:54:07;;;;;;;;;;;15.10;99.70;;;;;;5097368;28;19916;-68
2023/08/07 03:56:36;;;;;;;;;;;15.00;99.70;;;;;;5087897;28;19948;-68
2023/08/07 03:59:04;;;;;;;;;;;15.00;99.70;;;;;;5088463;28;20396;-68
2023/08/07 04:01:30;;;;;;;;;;;15.00;99.60;;;;;;5088310;28;19927;-68
2023/08/07 04:03:55;;;;;;;;;;;15.00;99.70;;;;;;5088459;28;20658;-68
2023/08/07 04:06:21;;;;;;;;;;;15.00;99.70;;;;;;5091648;28;20044;-68
2023/08/07 04:08:46;;;;;;;;;;;15.00;99.70;;;;;;5088458;28;20318;-68
2023/08/07 04:11:12;;;;;;;;;;;15.00;99.70;;;;;;5089314;28;19916;-68
2023/08/07 04:13:38;;;;;;;;;;;14.90;99.80;;;;;;5088550;28;19921;-68
2023/08/07 04:16:04;;;;;;;;;;;15.00;99.70;;;;;;5088077;28;20362;-68
2023/08/07 04:18:31;;;;;;;;;;;15.00;99.70;;;;;;5088388;28;19912;-68
2023/08/07 04:20:57;;;;;;;;;;;15.00;99.60;;;;;;5088402;28;19935;-68
2023/08/07 04:23:23;;;;;;;;;;;15.00;99.60;;;;;;5096766;28;20361;-68
2023/08/07 04:25:49;;;;;;;;;;;15.00;99.40;;;;;;5089927;28;19928;-68
2023/08/07 04:28:14;;;;;;;;;;;15.00;99.60;;;;;;5081865;28;19912;-68
2023/08/07 04:30:40;;;;;;;;;;;15.00;99.60;;;;;;5074489;28;19923;-68
2023/08/07 04:33:06;;;;;;;;;;;15.00;99.70;;;;;;5084756;28;20381;-68
2023/08/07 04:35:32;;;;;;;;;;;15.00;99.70;;;;;;5087438;28;19912;-68
2023/08/07 04:37:58;;;;;;;;;;;14.90;99.60;;;;;;5087621;28;20449;-68
2023/08/07 04:40:23;;;;;;;;;;;15.00;99.70;;;;;;5086847;28;19919;-68
2023/08/07 04:42:49;;;;;;;;;;;14.90;99.70;;;;;;5091724;28;20577;-68
2023/08/07 04:45:14;;;;;;;;;;;14.90;99.80;;;;;;5107961;28;19922;-68
2023/08/07 04:47:41;;;;;;;;;;;14.90;99.90;;;;;;5107720;28;20340;-68
2023/08/07 04:50:07;;;;;;;;;;;14.90;99.70;;;;;;5089132;28;20273;-68
2023/08/07 04:52:32;;;;;;;;;;;14.90;99.70;;;;;;5088977;28;19912;-68
2023/08/07 04:54:58;;;;;;;;;;;14.90;99.60;;;;;;5095378;28;19919;-67
2023/08/07 04:57:23;;;;;;;;;;;14.90;99.70;;;;;;5087064;28;19938;-68
2023/08/07 04:59:49;;;;;;;;;;;14.90;99.80;;;;;;5088440;28;19916;-67
2023/08/07 05:02:14;;;;;;;;;;;14.90;99.60;;;;;;5086853;28;19943;-68
2023/08/07 05:04:40;;;;;;;;;;;14.90;99.60;;;;;;5087296;28;19920;-68
2023/08/07 05:07:05;;;;;;;;;;;14.90;99.70;;;;;;5086812;28;19919;-67
2023/08/07 05:09:31;;;;;;;;;;;14.90;99.70;;;;;;5087476;28;19912;-67
2023/08/07 05:11:56;;;;;;;;;;;15.00;99.70;;;;;;5087046;28;19933;-67
2023/08/07 05:14:22;;;;;;;;;;;14.90;99.70;;;;;;5087559;28;19923;-67
2023/08/07 05:16:48;;;;;;;;;;;14.90;99.60;;;;;;5095886;28;19962;-68
2023/08/07 05:19:13;;;;;;;;;;;14.90;99.80;;;;;;5107978;28;19954;-67
2023/08/07 05:21:39;;;;;;;;;;;14.90;99.70;;;;;;5107814;28;19958;-68
2023/08/07 05:24:04;;;;;;;;;;;14.90;99.70;;;;;;5102497;28;19920;-68
2023/08/07 05:26:30;;;;;;;;;;;15.00;99.50;;;;;;5082935;28;20006;-68
2023/08/07 05:28:57;;;;;;;;;;;14.90;99.60;;;;;;5097271;28;19968;-68
2023/08/07 05:31:23;;;;;;;;;;;14.90;99.70;;;;;;5107110;28;19916;-68
2023/08/07 05:33:49;;;;;;;;;;;14.90;99.70;;;;;;5103084;28;20545;-67
2023/08/07 05:36:14;;;;;;;;;;;14.80;99.90;;;;;;5068144;28;19947;-68
2023/08/07 05:38:42;;;;;;;;;;;14.90;99.80;;;;;;5086445;28;20147;-68
2023/08/07 05:41:08;;;;;;;;;;;14.90;99.70;;;;;;5086861;28;19952;-67
2023/08/07 05:43:34;;;;;;;;;;;14.90;99.70;;;;;;5087332;28;19920;-67
2023/08/07 05:45:59;;;;;;;;;;;14.90;99.80;;;;;;5086783;28;20440;-67
2023/08/07 05:48:25;;;;;;;;;;;14.80;99.80;;;;;;5087064;28;19912;-68
2023/08/07 05:50:51;;;;;;;;;;;14.90;99.80;;;;;;5087962;28;19920;-67
2023/08/07 05:53:16;;;;;;;;;;;14.90;99.70;;;;;;5098227;28;19914;-67
2023/08/07 05:55:42;;;;;;;;;;;14.90;99.80;;;;;;5092331;28;19934;-67
2023/08/07 05:58:07;;;;;;;;;;;14.90;99.70;;;;;;5091829;28;19920;-67
2023/08/07 06:00:33;;;;;;;;;;;14.80;99.70;;;;;;5090329;28;19999;-67
2023/08/07 06:02:59;;;;;;;;;;;14.90;99.70;;;;;;5104042;28;19907;-67
2023/08/07 06:05:24;;;;;;;;;;;14.90;99.60;;;;;;5092770;28;19912;-67
2023/08/07 06:07:50;;;;;;;;;;;14.90;99.80;;;;;;5090418;28;20431;-68
2023/08/07 06:10:15;;;;;;;;;;;14.90;99.70;;;;;;5090327;28;19946;-67
2023/08/07 06:12:41;;;;;;;;;;;14.90;99.70;;;;;;5090213;28;19961;-67
2023/08/07 06:15:06;;;;;;;;;;;14.80;99.80;;;;;;5090574;28;19916;-67
2023/08/07 06:17:32;;;;;;;;;;;14.80;99.70;;;;;;5090193;28;19912;-67
2023/08/07 06:19:57;;;;;;;;;;;14.80;99.80;;;;;;5090656;28;19919;-67
2023/08/07 06:22:23;;;;;;;;;;;14.80;99.80;;;;;;5090458;28;19919;-68
2023/08/07 06:24:49;;;;;;;;;;;14.80;99.90;;;;;;5099312;28;19924;-68
2023/08/07 06:27:14;;;;;;;;;;;14.80;99.90;;;;;;5089317;28;20277;-68
2023/08/07 06:29:40;;;;;;;;;;;14.90;99.90;;;;;;5090327;28;19935;-68
2023/08/07 06:32:06;;;;;;;;;;;14.80;99.90;;;;;;5106423;28;19961;-68
2023/08/07 06:34:31;;;;;;;;;;;14.80;99.90;;;;;;5100419;28;19912;-67
2023/08/07 06:36:57;;;;;;;;;;;14.80;99.90;;;;;;5089971;28;20016;-68
2023/08/07 06:39:22;;;;;;;;;;;14.80;99.90;;;;;;5090287;28;19985;-68
2023/08/07 06:41:48;;;;;;;;;;;14.80;99.90;;;;;;5089889;28;19912;-68
2023/08/07 06:44:13;;;;;;;;;;;14.80;99.90;;;;;;5077278;28;19919;-68
2023/08/07 06:46:39;;;;;;;;;;;14.80;99.90;;;;;;5109798;28;19918;-68
2023/08/07 06:49:04;;;;;;;;;;;14.80;99.90;;;;;;5110432;28;20368;-68
2023/08/07 06:51:30;;;;;;;;;;;14.80;99.90;;;;;;5110222;28;19946;-68
2023/08/07 06:53:55;;;;;;;;;;;14.80;99.90;;;;;;5087551;28;19920;-68
2023/08/07 06:56:21;;;;;;;;;;;14.90;99.90;;;;;;5090926;28;19919;-68
2023/08/07 06:58:46;;;;;;;;;;;14.80;99.90;;;;;;5099996;28;19977;-68
2023/08/07 07:01:12;;;;;;;;;;;14.90;99.90;;;;;;5109878;28;19947;-68
2023/08/07 07:03:37;;;;;;;;;;;14.90;99.90;;;;;;5087333;28;19916;-68
2023/08/07 07:06:03;;;;;;;;;;;14.90;99.90;;;;;;5070657;28;19916;-68
2023/08/07 07:08:29;;;;;;;;;;;14.90;99.90;;;;;;5089609;28;19908;-68
2023/08/07 07:10:54;;;;;;;;;;;14.90;99.90;;;;;;5090373;28;19941;-68
2023/08/07 07:13:20;;;;;;;;;;;14.90;99.90;;;;;;5089538;28;19912;-68
2023/08/07 07:15:45;;;;;;;;;;;14.90;99.90;;;;;;5089061;28;19912;-68
2023/08/07 07:18:11;;;;;;;;;;;14.90;99.90;;;;;;5089563;28;19973;-68
2023/08/07 07:20:36;;;;;;;;;;;15.00;99.90;;;;;;5089186;28;20414;-68
2023/08/07 07:23:02;;;;;;;;;;;14.90;99.90;;;;;;5094026;28;19930;-68
2023/08/07 07:25:27;;;;;;;;;;;15.00;99.90;;;;;;5084446;28;19994;-68
2023/08/07 07:27:53;;;;;;;;;;;14.90;99.90;;;;;;5087652;28;19920;-68
2023/08/07 07:30:19;;;;;;;;;;;15.00;99.90;;;;;;5088382;28;19957;-68
2023/08/07 07:32:44;;;;;;;;;;;15.00;99.90;;;;;;5088216;28;19912;-68
2023/08/07 07:35:10;;;;;;;;;;;14.90;99.90;;;;;;5070325;28;19999;-68
2023/08/07 07:37:35;;;;;;;;;;;14.90;99.90;;;;;;5070175;28;20373;-68
2023/08/07 07:40:01;;;;;;;;;;;14.90;99.90;;;;;;5088449;28;19916;-68
2023/08/07 07:42:26;;;;;;;;;;;14.90;99.90;;;;;;5088300;28;19908;-68
2023/08/07 07:44:52;;;;;;;;;;;14.90;99.90;;;;;;5088161;28;19970;-68
2023/08/07 07:47:17;;;;;;;;;;;15.00;99.90;;;;;;5087771;28;19957;-68
2023/08/07 07:49:45;;;;;;;;;;;15.00;99.90;;;;;;5088237;28;19915;-68
2023/08/07 07:52:10;;;;;;;;;;;15.00;99.90;;;;;;5088147;28;19955;-68
2023/08/07 07:54:36;;;;;;;;;;;15.00;99.90;;;;;;5097881;28;19959;-68
2023/08/07 07:57:01;;;;;;;;;;;14.90;99.90;;;;;;5069464;28;20010;-68
2023/08/07 07:59:27;;;;;;;;;;;14.90;99.90;;;;;;5089095;28;19916;-68
2023/08/07 08:01:53;;;;;;;;;;;14.90;99.90;;;;;;5106653;28;19912;-68
2023/08/07 08:04:19;;;;;;;;;;;14.90;99.90;;;;;;5099628;28;20009;-68
2023/08/07 08:06:44;;;;;;;;;;;14.90;99.90;;;;;;5087286;28;19965;-68
2023/08/07 08:09:10;;;;;;;;;;;15.00;99.90;;;;;;5087769;28;20561;-68
2023/08/07 08:11:35;;;;;;;;;;;15.00;99.90;;;;;;5087512;28;19939;-68
2023/08/07 08:14:01;;;;;;;;;;;15.00;99.90;;;;;;5103583;28;20006;-68
2023/08/07 08:16:26;;;;;;;;;;;15.00;99.90;;;;;;5107414;28;19912;-68
2023/08/07 08:18:52;;;;;;;;;;;15.00;99.90;;;;;;5108142;28;19945;-68
2023/08/07 08:21:17;;;;;;;;;;;15.00;99.90;;;;;;5090920;28;20002;-68
2023/08/07 08:23:43;;;;;;;;;;;15.00;99.90;;;;;;5096624;28;19925;-68
2023/08/07 08:26:09;;;;;;;;;;;15.00;99.90;;;;;;5087352;28;19919;-69
2023/08/07 08:28:34;;;;;;;;;;;15.00;99.90;;;;;;5087536;28;20289;-68
2023/08/07 08:31:00;;;;;;;;;;;15.00;99.90;;;;;;5092428;28;19958;-68
2023/08/07 08:33:25;;;;;;;;;;;15.00;99.90;;;;;;5099475;28;19946;-68
2023/08/07 08:35:51;;;;;;;;;;;15.00;99.90;;;;;;5087290;28;19912;-68
2023/08/07 08:38:17;;;;;;;;;;;15.10;99.90;;;;;;5087318;28;20327;-68
2023/08/07 08:40:43;;;;;;;;;;;15.10;99.90;;;;;;5086984;28;19953;-68
2023/08/07 08:43:11;;;;;;;;;;;15.10;99.90;;;;;;5068997;28;20433;-68
2023/08/07 08:45:37;;;;;;;;;;;15.10;99.90;;;;;;5091844;28;19920;-68
2023/08/07 08:48:04;;;;;;;;;;;15.10;99.90;;;;;;5107383;28;19961;-68
2023/08/07 08:50:30;;;;;;;;;;;15.10;99.90;;;;;;5107547;28;19916;-68
2023/08/07 08:52:56;;;;;;;;;;;15.20;99.90;;;;;;5107438;28;20390;-68
2023/08/07 08:55:21;;;;;;;;;;;15.10;99.90;;;;;;5091116;28;20657;-68
2023/08/07 08:57:47;;;;;;;;;;;15.20;99.90;;;;;;5087256;28;19933;-68
2023/08/07 09:00:25;;;;;;;;;;;15.20;99.90;;;;;;5087055;28;19912;-68
2023/08/07 09:02:51;;;;;;;;;;;15.30;99.90;;;;;;5070220;28;19912;-68
2023/08/07 09:05:22;;;;;;;;;;;15.30;99.90;;;;;;5086745;28;19919;-68
2023/08/07 09:07:48;;;;;;;;;;;15.30;99.90;;;;;;5086947;28;19921;-68
2023/08/07 09:10:14;;;;;;;;;;;15.30;99.90;;;;;;5100621;28;20004;-68
2023/08/07 09:12:41;;;;;;;;;;;15.40;99.90;;;;;;5068763;28;19968;-68
2023/08/07 09:15:08;;;;;;;;;;;15.50;99.90;;;;;;5086836;28;19912;-68
2023/08/07 09:17:38;;;;;;;;;;;15.60;99.90;;;;;;5087233;28;19915;-68
2023/08/07 09:20:04;;;;;;;;;;;15.60;99.90;;;;;;5088651;28;20538;-68
2023/08/07 09:22:30;;;;;;;;;;;15.70;99.90;;;;;;5087864;28;20018;-68
2023/08/07 09:24:56;;;;;;;;;;;15.70;99.90;;;;;;5094925;28;20567;-68
2023/08/07 09:27:21;;;;;;;;;;;15.80;99.90;;;;;;5090131;28;20643;-68
2023/08/07 09:29:47;;;;;;;;;;;15.80;99.90;;;;;;5090930;28;19916;-68
2023/08/07 09:32:13;;;;;;;;;;;15.80;99.90;;;;;;5090669;28;19912;-68
2023/08/07 09:34:42;;;;;;;;;;;15.90;99.90;;;;;;5091082;28;19919;-68
2023/08/07 09:37:10;;;;;;;;;;;16.00;99.90;;;;;;5072174;28;19915;-68
2023/08/07 09:39:36;;;;;;;;;;;16.00;99.90;;;;;;5090875;28;19942;-69
2023/08/07 09:42:05;;;;;;;;;;;16.10;99.90;;;;;;5090485;28;19912;-69
2023/08/07 09:44:37;;;;;;;;;;;16.10;99.90;;;;;;5072445;28;19923;-69
2023/08/07 09:47:20;;;;;;;;;;;16.20;99.90;;;;;;5090250;28;19912;-69
2023/08/07 09:49:46;;;;;;;;;;;16.30;99.90;;;;;;5090363;28;19978;-69
2023/08/07 09:52:15;;;;;;;;;;;16.30;99.90;;;;;;5090658;28;20000;-69
2023/08/07 09:54:41;;;;;;;;;;;16.40;99.90;;;;;;5099446;28;19923;-69
2023/08/07 09:57:07;;;;;;;;;;;16.40;99.70;;;;;;5089944;28;19908;-69
2023/08/07 09:59:33;;;;;;;;;;;16.40;99.80;;;;;;5072311;28;19908;-69
2023/08/07 10:02:00;;;;;;;;;;;16.40;99.90;;;;;;5071926;28;19919;-68
2023/08/07 10:04:26;;;;;;;;;;;16.40;99.70;;;;;;5089544;28;19912;-68
2023/08/07 10:06:52;;;;;;;;;;;16.30;99.80;;;;;;5096255;28;19919;-68
2023/08/07 10:09:17;;;;;;;;;;;16.30;99.90;;;;;;5092232;28;19908;-68
2023/08/07 10:11:43;;;;;;;;;;;16.30;99.90;;;;;;5101447;28;20035;-68
2023/08/07 10:14:09;;;;;;;;;;;16.20;99.90;;;;;;5109958;28;20484;-68
2023/08/07 10:16:39;;;;;;;;;;;16.30;99.90;;;;;;5094045;28;19919;-68
2023/08/07 10:19:05;;;;;;;;;;;16.30;99.90;;;;;;5090062;28;19919;-68
2023/08/07 10:21:31;;;;;;;;;;;16.40;99.70;;;;;;5085307;28;19912;-68
2023/08/07 10:23:57;;;;;;;;;;;16.40;99.60;;;;;;5092576;28;19927;-68
2023/08/07 10:26:23;;;;;;;;;;;16.40;99.70;;;;;;5108327;28;20694;-68
2023/08/07 10:28:49;;;;;;;;;;;16.50;99.70;;;;;;5092094;28;19923;-68
2023/08/07 10:31:15;;;;;;;;;;;16.50;99.40;;;;;;5089525;28;19912;-68
2023/08/07 10:33:41;;;;;;;;;;;16.50;99.40;;;;;;5090050;28;20591;-68
2023/08/07 10:36:10;;;;;;;;;;;16.50;99.80;;;;;;5089799;28;20533;-68
2023/08/07 10:38:36;;;;;;;;;;;16.60;99.60;;;;;;5089110;28;19935;-68
2023/08/07 10:41:07;;;;;;;;;;;16.70;99.40;;;;;;5090757;28;19912;-68
2023/08/07 10:43:40;;;;;;;;;;;16.80;99.50;;;;;;5089614;28;20668;-68
2023/08/07 10:46:06;;;;;;;;;;;16.80;99.60;;;;;;5089287;28;19916;-68
2023/08/07 10:48:37;;;;;;;;;;;16.80;99.50;;;;;;5089852;28;19916;-69
2023/08/07 10:51:03;;;;;;;;;;;16.90;99.30;;;;;;5089753;28;19908;-69
2023/08/07 10:53:51;;;;;;;;;;;16.90;99.30;;;;;;5099168;28;19912;-68
2023/08/07 10:56:20;;;;;;;;;;;16.90;99.50;;;;;;5109139;28;20272;-69
2023/08/07 10:58:52;;;;;;;;;;;16.80;99.60;;;;;;5091460;28;19912;-69
2023/08/07 11:01:20;;;;;;;;;;;16.80;99.70;;;;;;5109813;28;19912;-69
2023/08/07 11:03:50;;;;;;;;;;;16.90;99.60;;;;;;5102660;28;19920;-69
2023/08/07 11:06:16;;;;;;;;;;;16.90;99.60;;;;;;5084217;28;20564;-69
2023/08/07 11:08:42;;;;;;;;;;;16.90;99.60;;;;;;5088554;28;19952;-69
2023/08/07 11:11:07;;;;;;;;;;;16.90;99.60;;;;;;5096770;28;19950;-69
2023/08/07 11:13:33;;;;;;;;;;;17.00;99.40;;;;;;5090589;28;19916;-69
2023/08/07 11:15:59;;;;;;;;;;;17.00;99.50;;;;;;5108284;28;19964;-69
2023/08/07 11:18:25;;;;;;;;;;;17.10;99.40;;;;;;5109111;28;19969;-69
2023/08/07 11:20:52;;;;;;;;;;;17.20;99.30;;;;;;5092216;28;20457;-69
2023/08/07 11:23:22;;;;;;;;;;;17.20;99.20;;;;;;5091473;28;19922;-68
2023/08/07 11:25:47;;;;;;;;;;;17.30;99.10;;;;;;5087872;28;20395;-69
2023/08/07 11:28:13;;;;;;;;;;;17.30;99.20;;;;;;5089385;28;19916;-69
2023/08/07 11:30:38;;;;;;;;;;;17.50;99.00;;;;;;5088188;28;19912;-69
2023/08/07 11:33:05;;;;;;;;;;;17.50;98.90;;;;;;5088325;28;20691;-69
2023/08/07 11:35:31;;;;;;;;;;;17.70;99.30;;;;;;5070034;28;19913;-69
2023/08/07 11:37:56;;;;;;;;;;;17.70;99.50;;;;;;5068131;28;19919;-69
2023/08/07 11:40:23;;;;;;;;;;;17.80;99.20;;;;;;5070074;28;19997;-69
2023/08/07 11:42:48;;;;;;;;;;;17.90;99.10;;;;;;5087850;28;19919;-71
2023/08/07 11:45:15;;;;;;;;;;;18.00;99.00;;;;;;5088919;28;19916;-69
2023/08/07 11:47:41;;;;;;;;;;;18.00;98.80;;;;;;5087580;28;19912;-69
2023/08/07 11:50:06;;;;;;;;;;;18.00;98.90;;;;;;5087695;28;20281;-69
2023/08/07 11:52:32;;;;;;;;;;;18.00;99.00;;;;;;5089038;28;20108;-69
2023/08/07 11:54:57;;;;;;;;;;;18.00;99.00;;;;;;5095563;28;19947;-69
2023/08/07 11:57:24;;;;;;;;;;;18.00;98.50;;;;;;5087472;28;19912;-69
2023/08/07 11:59:50;;;;;;;;;;;18.00;98.50;;;;;;5090847;28;19916;-69
2023/08/07 12:02:16;;;;;;;;;;;18.00;98.70;;;;;;5107911;28;19934;-69
2023/08/07 12:04:41;;;;;;;;;;;18.10;98.50;;;;;;5096080;28;19943;-69
2023/08/07 12:07:10;;;;;;;;;;;18.20;98.40;;;;;;5087312;28;19934;-69
2023/08/07 12:09:36;;;;;;;;;;;18.30;98.00;;;;;;5087813;28;19961;-69
2023/08/07 12:12:02;;;;;;;;;;;18.40;98.10;;;;;;5087344;28;20318;-69
2023/08/07 12:14:31;;;;;;;;;;;18.40;97.80;;;;;;5096667;28;19919;-69
2023/08/07 12:16:56;;;;;;;;;;;18.50;97.40;;;;;;5096457;28;19916;-69
2023/08/07 12:19:22;;;;;;;;;;;18.50;97.30;;;;;;5089904;28;19919;-69
2023/08/07 12:21:48;;;;;;;;;;;18.60;97.60;;;;;;5068670;28;19916;-69
2023/08/07 12:24:13;;;;;;;;;;;18.70;97.30;;;;;;5096561;28;19973;-69
2023/08/07 12:26:39;;;;;;;;;;;18.90;98.30;;;;;;5086922;28;19916;-69
2023/08/07 12:29:04;;;;;;;;;;;18.90;97.50;;;;;;5087267;28;20591;-69
2023/08/07 12:31:30;;;;;;;;;;;19.00;97.60;;;;;;5087279;28;20415;-69
2023/08/07 12:33:55;;;;;;;;;;;19.00;97.70;;;;;;5088856;28;20399;-69
2023/08/07 12:36:21;;;;;;;;;;;19.10;97.20;;;;;;5086666;28;19919;-69
2023/08/07 12:38:46;;;;;;;;;;;19.10;96.90;;;;;;5086958;28;19979;-69
2023/08/07 12:41:14;;;;;;;;;;;19.10;97.20;;;;;;5086394;28;20535;-69
2023/08/07 12:43:39;;;;;;;;;;;19.20;96.70;;;;;;5086723;28;20405;-69
2023/08/07 12:46:04;;;;;;;;;;;19.20;96.30;;;;;;5086201;28;19941;-69
2023/08/07 12:48:30;;;;;;;;;;;19.30;96.10;;;;;;5086488;28;19912;-69
2023/08/07 12:50:56;;;;;;;;;;;19.30;96.60;;;;;;5087977;28;20002;-69
2023/08/07 12:53:21;;;;;;;;;;;19.20;96.30;;;;;;5089364;28;19961;-69
2023/08/07 12:55:46;;;;;;;;;;;19.20;96.20;;;;;;5067642;28;20048;-69
2023/08/07 12:58:12;;;;;;;;;;;19.20;96.60;;;;;;5086949;28;20027;-69
2023/08/07 13:00:37;;;;;;;;;;;19.10;96.20;;;;;;5085475;28;19916;-69
2023/08/07 13:03:03;;;;;;;;;;;19.20;96.20;;;;;;5086944;28;20383;-69
2023/08/07 13:05:32;;;;;;;;;;;19.30;95.70;;;;;;5086304;28;19916;-69
2023/08/07 13:07:58;;;;;;;;;;;19.30;96.60;;;;;;5084114;28;19923;-69
2023/08/07 13:10:24;;;;;;;;;;;19.40;95.80;;;;;;5086066;28;19927;-69
2023/08/07 13:12:49;;;;;;;;;;;19.40;95.50;;;;;;5084676;28;19920;-69
2023/08/07 13:15:15;;;;;;;;;;;19.40;96.20;;;;;;5086122;28;19999;-69
2023/08/07 13:17:41;;;;;;;;;;;19.50;95.70;;;;;;5085864;28;19912;-69
2023/08/07 13:20:10;;;;;;;;;;;19.40;95.20;;;;;;5085069;28;20417;-69
2023/08/07 13:22:43;;;;;;;;;;;19.60;96.30;;;;;;5085882;28;19924;-69
2023/08/07 13:25:09;;;;;;;;;;;19.60;94.30;;;;;;5067744;28;20396;-69
2023/08/07 13:27:35;;;;;;;;;;;19.60;95.10;;;;;;5099817;28;19938;-69
2023/08/07 13:30:01;;;;;;;;;;;19.60;94.00;;;;;;5107936;28;19919;-69
2023/08/07 13:32:26;;;;;;;;;;;19.60;94.90;;;;;;5091406;28;19908;-69
2023/08/07 13:34:52;;;;;;;;;;;19.70;95.00;;;;;;5087529;28;19908;-69
2023/08/07 13:37:18;;;;;;;;;;;19.80;95.30;;;;;;5087150;28;19947;-69
2023/08/07 13:39:43;;;;;;;;;;;19.80;96.00;;;;;;5087343;28;19916;-70
2023/08/07 13:42:10;;;;;;;;;;;19.90;95.80;;;;;;5086945;28;19923;-70
2023/08/07 13:44:36;;;;;;;;;;;20.00;95.30;;;;;;5088706;28;19924;-70
2023/08/07 13:47:02;;;;;;;;;;;19.90;93.70;;;;;;5068918;28;19908;-69
2023/08/07 13:49:28;;;;;;;;;;;19.90;93.70;;;;;;5087475;28;19912;-69
2023/08/07 13:51:54;;;;;;;;;;;20.00;94.60;;;;;;5087199;28;19912;-70
2023/08/07 13:54:19;;;;;;;;;;;20.10;94.70;;;;;;5091093;28;20720;-69
2023/08/07 13:56:45;;;;;;;;;;;20.10;93.40;;;;;;5066920;28;20591;-69
2023/08/07 13:59:11;;;;;;;;;;;20.10;94.00;;;;;;5067944;28;19919;-69
2023/08/07 14:01:36;;;;;;;;;;;20.00;94.00;;;;;;5088135;28;19955;-69
2023/08/07 14:04:02;;;;;;;;;;;20.10;94.90;;;;;;5091861;28;19973;-69
2023/08/07 14:06:28;;;;;;;;;;;20.10;93.90;;;;;;5098784;28;20773;-69
2023/08/07 14:08:54;;;;;;;;;;;20.00;94.00;;;;;;5071179;28;19973;-69